createdAt,value
2022-11-25T00:00:12.030Z,12.13
2022-11-25T00:01:11.294Z,12.14
2022-11-25T00:02:12.099Z,12.12
2022-11-25T00:03:11.215Z,12.13
2022-11-25T00:04:11.686Z,12.14
2022-11-25T00:05:11.359Z,12.15
2022-11-25T00:06:11.919Z,12.14
2022-11-25T00:07:12.234Z,12.15
2022-11-25T00:08:10.829Z,12.13
2022-11-25T00:09:11.590Z,12.15
2022-11-25T00:10:11.754Z,12.13
2022-11-25T00:11:11.145Z,12.14
2022-11-25T00:12:11.496Z,12.14
2022-11-25T00:13:11.079Z,12.15
2022-11-25T00:14:11.229Z,12.14
2022-11-25T00:15:11.955Z,12.14
2022-11-25T00:16:11.911Z,12.15
2022-11-25T00:17:11.699Z,12.17
2022-11-25T00:18:11.382Z,12.18
2022-11-25T00:19:11.937Z,12.17
2022-11-25T00:20:11.816Z,12.17
2022-11-25T00:21:11.532Z,12.18
2022-11-25T00:22:11.056Z,12.17
2022-11-25T00:23:11.425Z,12.15
2022-11-25T00:24:11.964Z,12.14
2022-11-25T00:25:11.639Z,12.14
2022-11-25T00:26:11.363Z,12.19
2022-11-25T00:27:11.885Z,12.19
2022-11-25T00:28:11.336Z,12.21
2022-11-25T00:29:12.118Z,12.22
2022-11-25T00:30:17.212Z,12.24
2022-11-25T00:31:11.905Z,12.26
2022-11-25T00:32:11.345Z,12.26
2022-11-25T00:33:11.683Z,12.26
2022-11-25T00:34:11.455Z,12.28
2022-11-25T00:35:12.163Z,12.30
2022-11-25T00:36:11.956Z,12.31
2022-11-25T00:37:11.735Z,12.34
2022-11-25T00:38:11.792Z,12.36
2022-11-25T00:39:11.827Z,12.36
2022-11-25T00:40:12.031Z,12.34
2022-11-25T00:41:11.729Z,12.37
2022-11-25T00:42:11.808Z,12.35
2022-11-25T00:43:11.867Z,12.39
2022-11-25T00:44:11.818Z,12.36
2022-11-25T00:45:12.148Z,12.37
2022-11-25T00:46:12.036Z,12.39
2022-11-25T00:47:12.106Z,12.40
2022-11-25T00:48:12.002Z,12.39
2022-11-25T00:49:11.681Z,12.39
2022-11-25T00:50:11.361Z,12.44
2022-11-25T00:51:11.740Z,12.47
2022-11-25T00:52:25.720Z,12.46
2022-11-25T00:53:11.183Z,12.42
2022-11-25T00:54:11.812Z,12.42
2022-11-25T00:55:11.437Z,12.43
2022-11-25T00:56:11.941Z,12.41
2022-11-25T00:57:11.652Z,12.42
2022-11-25T00:58:11.186Z,12.43
2022-11-25T00:59:11.947Z,12.44
2022-11-25T01:00:12.311Z,12.44
2022-11-25T01:01:12.584Z,12.46
2022-11-25T01:02:31.164Z,12.46
2022-11-25T01:03:11.950Z,12.47
2022-11-25T01:04:11.820Z,12.47
2022-11-25T01:05:11.959Z,12.5
2022-11-25T01:06:11.457Z,12.51
2022-11-25T01:07:12.015Z,12.50
2022-11-25T01:08:12.118Z,12.51
2022-11-25T01:09:11.945Z,12.51
2022-11-25T01:10:11.531Z,12.5
2022-11-25T01:11:11.127Z,12.50
2022-11-25T01:12:11.819Z,12.52
2022-11-25T01:13:11.888Z,12.52
2022-11-25T01:14:11.822Z,12.53
2022-11-25T01:15:11.356Z,12.55
2022-11-25T01:16:10.983Z,12.55
2022-11-25T01:17:11.970Z,12.57
2022-11-25T01:18:11.487Z,12.60
2022-11-25T01:19:12.117Z,12.60
2022-11-25T01:20:12.033Z,12.59
2022-11-25T01:21:11.611Z,12.60
2022-11-25T01:22:10.924Z,12.62
2022-11-25T01:23:11.395Z,12.61
2022-11-25T01:24:11.986Z,12.60
2022-11-25T01:25:11.707Z,12.60
2022-11-25T01:26:11.058Z,12.60
2022-11-25T01:27:11.549Z,12.60
2022-11-25T01:28:11.322Z,12.61
2022-11-25T01:29:11.907Z,12.59
2022-11-25T01:30:11.972Z,12.61
2022-11-25T01:31:11.574Z,12.63
2022-11-25T01:32:11.013Z,12.65
2022-11-25T01:33:11.692Z,12.66
2022-11-25T01:34:11.216Z,12.67
2022-11-25T01:35:11.800Z,12.67
2022-11-25T01:36:11.716Z,12.64
2022-11-25T01:37:11.567Z,12.66
2022-11-25T01:38:11.122Z,12.65
2022-11-25T01:39:11.755Z,12.66
2022-11-25T01:40:11.345Z,12.69
2022-11-25T01:41:11.622Z,12.68
2022-11-25T01:42:11.237Z,12.69
2022-11-25T01:43:11.881Z,12.69
2022-11-25T01:44:11.484Z,12.71
2022-11-25T01:45:11.131Z,12.71
2022-11-25T01:46:11.837Z,12.72
2022-11-25T01:47:11.695Z,12.73
2022-11-25T01:48:11.250Z,12.71
2022-11-25T01:49:12.059Z,12.74
2022-11-25T01:50:11.848Z,12.70
2022-11-25T01:51:11.432Z,12.72
2022-11-25T01:52:11.892Z,12.72
2022-11-25T01:53:11.329Z,12.73
2022-11-25T01:54:11.806Z,12.77
2022-11-25T01:55:11.438Z,12.79
2022-11-25T01:56:10.859Z,12.82
2022-11-25T01:57:11.450Z,12.83
2022-11-25T01:58:10.796Z,12.81
2022-11-25T01:59:11.081Z,12.81
2022-11-25T02:00:12.229Z,12.80
2022-11-25T02:01:11.037Z,12.79
2022-11-25T02:02:11.858Z,12.78
2022-11-25T02:03:11.873Z,12.80
2022-11-25T02:04:11.591Z,12.80
2022-11-25T02:05:11.299Z,12.81
2022-11-25T02:06:11.960Z,12.78
2022-11-25T02:07:11.456Z,12.78
2022-11-25T02:08:11.859Z,12.77
2022-11-25T02:09:11.456Z,12.78
2022-11-25T02:10:12.396Z,12.80
2022-11-25T02:11:11.246Z,12.81
2022-11-25T02:12:11.993Z,12.81
2022-11-25T02:13:11.540Z,12.82
2022-11-25T02:14:10.850Z,12.83
2022-11-25T02:15:11.832Z,12.83
2022-11-25T02:16:11.301Z,12.81
2022-11-25T02:17:11.893Z,12.82
2022-11-25T02:18:11.263Z,12.82
2022-11-25T02:19:11.788Z,12.79
2022-11-25T02:20:11.435Z,12.77
2022-11-25T02:21:11.846Z,12.78
2022-11-25T02:22:11.220Z,12.76
2022-11-25T02:23:12.096Z,12.74
2022-11-25T02:24:11.687Z,12.72
2022-11-25T02:25:11.569Z,12.70
2022-11-25T02:26:11.194Z,12.69
2022-11-25T02:27:12.124Z,12.66
2022-11-25T02:28:11.806Z,12.63
2022-11-25T02:29:11.768Z,12.62
2022-11-25T02:30:12.467Z,12.64
2022-11-25T02:31:11.702Z,12.61
2022-11-25T02:32:11.641Z,12.62
2022-11-25T02:33:11.283Z,12.64
2022-11-25T02:34:11.776Z,12.63
2022-11-25T02:35:11.512Z,12.63
2022-11-25T02:36:11.085Z,12.61
2022-11-25T02:37:11.713Z,12.60
2022-11-25T02:38:11.497Z,12.62
2022-11-25T02:39:11.303Z,12.62
2022-11-25T02:40:12.369Z,12.64
2022-11-25T02:41:12.134Z,12.61
2022-11-25T02:42:11.701Z,12.61
2022-11-25T02:43:11.164Z,12.63
2022-11-25T02:44:11.714Z,12.63
2022-11-25T02:45:11.900Z,12.63
2022-11-25T02:46:11.234Z,12.60
2022-11-25T02:47:11.226Z,12.59
2022-11-25T02:48:11.842Z,12.60
2022-11-25T02:49:11.574Z,12.58
2022-11-25T02:50:11.208Z,12.57
2022-11-25T02:51:11.637Z,12.56
2022-11-25T02:52:11.157Z,12.57
2022-11-25T02:53:11.917Z,12.57
2022-11-25T02:54:11.375Z,12.55
2022-11-25T02:55:10.979Z,12.55
2022-11-25T02:56:11.532Z,12.55
2022-11-25T02:57:11.425Z,12.56
2022-11-25T02:58:11.126Z,12.56
2022-11-25T02:59:11.767Z,12.56
2022-11-25T03:00:11.774Z,12.57
2022-11-25T03:01:16.563Z,12.56
2022-11-25T03:02:11.371Z,12.54
2022-11-25T03:03:11.208Z,12.53
2022-11-25T03:04:11.651Z,12.54
2022-11-25T03:05:11.269Z,12.55
2022-11-25T03:06:11.884Z,12.54
2022-11-25T03:07:11.584Z,12.52
2022-11-25T03:08:11.602Z,12.50
2022-11-25T03:09:11.652Z,12.53
2022-11-25T03:10:11.444Z,12.53
2022-11-25T03:11:11.322Z,12.52
2022-11-25T03:12:12.169Z,12.52
2022-11-25T03:13:11.758Z,12.52
2022-11-25T03:14:11.393Z,12.51
2022-11-25T03:15:11.146Z,12.51
2022-11-25T03:16:11.846Z,12.53
2022-11-25T03:17:11.319Z,12.52
2022-11-25T03:18:11.400Z,12.52
2022-11-25T03:19:11.759Z,12.53
2022-11-25T03:20:11.373Z,12.56
2022-11-25T03:21:12.074Z,12.55
2022-11-25T03:22:11.437Z,12.57
2022-11-25T03:23:11.100Z,12.59
2022-11-25T03:24:11.591Z,12.59
2022-11-25T03:25:11.212Z,12.57
2022-11-25T03:26:11.582Z,12.56
2022-11-25T03:27:11.288Z,12.56
2022-11-25T03:28:11.627Z,12.56
2022-11-25T03:29:11.232Z,12.55
2022-11-25T03:30:12.030Z,12.55
2022-11-25T03:31:12.007Z,12.56
2022-11-25T03:32:11.709Z,12.57
2022-11-25T03:33:11.461Z,12.57
2022-11-25T03:34:11.208Z,12.61
2022-11-25T03:35:31.543Z,12.62
2022-11-25T03:36:12.018Z,12.63
2022-11-25T03:37:11.824Z,12.67
2022-11-25T03:38:11.867Z,12.69
2022-11-25T03:39:12.101Z,12.71
2022-11-25T03:40:12.163Z,12.72
2022-11-25T03:41:12.108Z,12.73
2022-11-25T03:42:11.727Z,12.77
2022-11-25T03:43:11.877Z,12.80
2022-11-25T03:44:12.313Z,12.82
2022-11-25T03:45:11.565Z,12.82
2022-11-25T03:46:11.502Z,12.81
2022-11-25T03:47:11.572Z,12.81
2022-11-25T03:48:11.774Z,12.83
2022-11-25T03:49:11.482Z,12.83
2022-11-25T03:50:11.040Z,12.82
2022-11-25T03:51:11.980Z,12.80
2022-11-25T03:52:12.019Z,12.82
2022-11-25T03:53:11.121Z,12.81
2022-11-25T03:54:12.296Z,12.81
2022-11-25T03:55:12.531Z,12.83
2022-11-25T03:56:11.737Z,12.86
2022-11-25T03:57:12.076Z,12.83
2022-11-25T03:58:11.735Z,12.81
2022-11-25T03:59:11.594Z,12.87
2022-11-25T04:00:12.529Z,12.88
2022-11-25T04:01:11.883Z,12.87
2022-11-25T04:02:12.116Z,12.83
2022-11-25T04:03:12.044Z,12.85
2022-11-25T04:04:11.935Z,12.84
2022-11-25T04:05:12.217Z,12.87
2022-11-25T04:06:12.052Z,12.88
2022-11-25T04:07:11.833Z,12.89
2022-11-25T04:08:11.590Z,12.92
2022-11-25T04:09:11.214Z,12.91
2022-11-25T04:10:12.396Z,12.93
2022-11-25T04:11:11.125Z,12.95
2022-11-25T04:12:12.123Z,12.97
2022-11-25T04:13:11.505Z,12.98
2022-11-25T04:14:11.123Z,13.01
2022-11-25T04:15:12.148Z,13.02
2022-11-25T04:16:11.955Z,13.04
2022-11-25T04:17:11.971Z,13.05
2022-11-25T04:18:11.875Z,13.06
2022-11-25T04:19:11.844Z,13.10
2022-11-25T04:20:11.663Z,13.13
2022-11-25T04:21:11.534Z,13.14
2022-11-25T04:22:11.233Z,13.15
2022-11-25T04:23:11.279Z,13.14
2022-11-25T04:24:11.764Z,13.17
2022-11-25T04:25:11.777Z,13.18
2022-11-25T04:26:11.400Z,13.17
2022-11-25T04:27:11.156Z,13.17
2022-11-25T04:28:11.467Z,13.18
2022-11-25T04:29:11.259Z,13.18
2022-11-25T04:30:11.215Z,13.18
2022-11-25T04:32:11.811Z,13.21
2022-11-25T04:33:11.523Z,13.18
2022-11-25T04:34:11.630Z,13.17
2022-11-25T04:35:11.658Z,13.22
2022-11-25T04:36:11.552Z,13.19
2022-11-25T04:37:11.480Z,13.22
2022-11-25T04:38:11.864Z,13.22
2022-11-25T04:39:11.795Z,13.22
2022-11-25T04:40:11.999Z,13.22
2022-11-25T04:41:11.533Z,13.24
2022-11-25T04:42:11.607Z,13.25
2022-11-25T04:43:11.530Z,13.26
2022-11-25T04:44:11.452Z,13.26
2022-11-25T04:45:22.959Z,13.27
2022-11-25T04:46:14.358Z,13.26
2022-11-25T04:47:11.741Z,13.25
2022-11-25T04:48:11.658Z,13.25
2022-11-25T04:49:11.279Z,13.25
2022-11-25T04:50:12.304Z,13.25
2022-11-25T04:51:12.195Z,13.26
2022-11-25T04:52:12.043Z,13.27
2022-11-25T04:53:11.757Z,13.28
2022-11-25T04:54:16.165Z,13.27
2022-11-25T04:55:12.135Z,13.26
2022-11-25T04:56:12.036Z,13.28
2022-11-25T04:57:11.757Z,13.27
2022-11-25T04:58:11.554Z,13.29
2022-11-25T04:59:11.455Z,13.27
2022-11-25T05:00:12.835Z,13.28
2022-11-25T05:01:11.249Z,13.28
2022-11-25T05:02:11.813Z,13.28
2022-11-25T05:03:11.750Z,13.31
2022-11-25T05:04:11.420Z,13.31
2022-11-25T05:05:12.457Z,13.31
2022-11-25T05:06:11.392Z,13.33
2022-11-25T05:07:12.257Z,13.33
2022-11-25T05:08:11.109Z,13.35
2022-11-25T05:09:11.922Z,13.36
2022-11-25T05:10:11.908Z,13.37
2022-11-25T05:11:11.648Z,13.37
2022-11-25T05:12:11.226Z,13.38
2022-11-25T05:13:12.122Z,13.39
2022-11-25T05:14:12.130Z,13.40
2022-11-25T05:15:12.155Z,13.40
2022-11-25T05:16:12.005Z,13.40
2022-11-25T05:17:12.075Z,13.40
2022-11-25T05:18:11.992Z,13.41
2022-11-25T05:19:11.712Z,13.43
2022-11-25T05:20:11.708Z,13.42
2022-11-25T05:21:11.359Z,13.40
2022-11-25T05:22:11.212Z,13.42
2022-11-25T05:23:12.006Z,13.40
2022-11-25T05:24:11.763Z,13.42
2022-11-25T05:25:11.515Z,13.40
2022-11-25T05:26:11.208Z,13.39
2022-11-25T05:27:11.780Z,13.39
2022-11-25T05:28:11.264Z,13.38
2022-11-25T05:29:12.142Z,13.40
2022-11-25T05:30:12.249Z,13.36
2022-11-25T05:31:12.113Z,13.36
2022-11-25T05:32:11.987Z,13.38
2022-11-25T05:33:11.838Z,13.38
2022-11-25T05:34:11.568Z,13.36
2022-11-25T05:35:12.185Z,13.38
2022-11-25T05:36:11.928Z,13.37
2022-11-25T05:37:11.901Z,13.36
2022-11-25T05:38:10.944Z,13.38
2022-11-25T05:39:11.737Z,13.37
2022-11-25T05:40:11.742Z,13.35
2022-11-25T05:41:11.600Z,13.34
2022-11-25T05:42:11.391Z,13.34
2022-11-25T05:43:11.369Z,13.38
2022-11-25T05:44:11.868Z,13.37
2022-11-25T05:45:12.129Z,13.35
2022-11-25T05:46:12.160Z,13.38
2022-11-25T05:47:11.806Z,13.39
2022-11-25T05:48:11.172Z,13.40
2022-11-25T05:49:12.062Z,13.39
2022-11-25T05:50:12.027Z,13.40
2022-11-25T05:51:11.474Z,13.42
2022-11-25T05:52:11.309Z,13.43
2022-11-25T05:53:11.735Z,13.43
2022-11-25T05:54:11.757Z,13.43
2022-11-25T05:55:11.505Z,13.44
2022-11-25T05:56:11.929Z,13.44
2022-11-25T05:57:11.864Z,13.44
2022-11-25T05:58:11.595Z,13.43
2022-11-25T05:59:11.174Z,13.41
2022-11-25T06:00:12.313Z,13.41
2022-11-25T06:01:11.458Z,13.39
2022-11-25T06:02:11.367Z,13.40
2022-11-25T06:03:11.701Z,13.40
2022-11-25T06:04:11.451Z,13.38
2022-11-25T06:05:12.132Z,13.38
2022-11-25T06:06:11.728Z,13.39
2022-11-25T06:07:11.795Z,13.35
2022-11-25T06:08:11.415Z,13.32
2022-11-25T06:09:12.201Z,13.30
2022-11-25T06:11:11.675Z,13.28
2022-11-25T06:12:11.394Z,13.25
2022-11-25T06:13:11.342Z,13.25
2022-11-25T06:14:11.958Z,13.21
2022-11-25T06:15:11.874Z,13.19
2022-11-25T06:16:11.543Z,13.20
2022-11-25T06:17:11.491Z,13.16
2022-11-25T06:18:11.433Z,13.17
2022-11-25T06:19:11.079Z,13.13
2022-11-25T06:20:11.648Z,13.14
2022-11-25T06:21:11.781Z,13.10
2022-11-25T06:22:11.329Z,13.10
2022-11-25T06:23:12.054Z,13.12
2022-11-25T06:24:11.859Z,13.07
2022-11-25T06:25:12.002Z,13.06
2022-11-25T06:27:11.364Z,13.06
2022-11-25T06:28:13.322Z,13.03
2022-11-25T06:29:11.499Z,13.05
2022-11-25T06:30:12.645Z,13.02
2022-11-25T06:31:11.297Z,13
2022-11-25T06:32:11.253Z,13
2022-11-25T06:33:12.011Z,12.98
2022-11-25T06:34:11.940Z,12.97
2022-11-25T06:35:11.432Z,12.96
2022-11-25T06:36:11.271Z,12.97
2022-11-25T06:37:12.108Z,12.98
2022-11-25T06:38:11.880Z,12.96
2022-11-25T06:39:11.978Z,12.95
2022-11-25T06:40:11.890Z,12.95
2022-11-25T06:41:11.856Z,12.95
2022-11-25T06:42:11.722Z,12.91
2022-11-25T06:43:11.029Z,12.92
2022-11-25T06:44:11.772Z,12.91
2022-11-25T06:45:11.911Z,12.93
2022-11-25T06:46:11.694Z,12.89
2022-11-25T06:47:11.593Z,12.85
2022-11-25T06:48:11.380Z,12.86
2022-11-25T06:49:11.650Z,12.89
2022-11-25T06:50:11.692Z,12.86
2022-11-25T06:51:11.837Z,12.86
2022-11-25T06:52:11.702Z,12.86
2022-11-25T06:53:11.520Z,12.89
2022-11-25T06:54:11.304Z,12.88
2022-11-25T06:55:12.551Z,12.88
2022-11-25T06:56:11.305Z,12.86
2022-11-25T06:57:11.853Z,12.84
2022-11-25T06:58:34.465Z,12.85
2022-11-25T06:59:11.745Z,12.83
2022-11-25T07:00:12.354Z,12.86
2022-11-25T07:01:12.011Z,12.87
2022-11-25T07:02:11.225Z,12.90
2022-11-25T07:03:11.548Z,12.87
2022-11-25T07:04:11.505Z,12.87
2022-11-25T07:05:11.595Z,12.85
2022-11-25T07:06:11.341Z,12.89
2022-11-25T07:07:11.740Z,12.85
2022-11-25T07:08:11.875Z,12.83
2022-11-25T07:09:12.154Z,12.81
2022-11-25T07:10:12.272Z,12.80
2022-11-25T07:11:12.144Z,12.80
2022-11-25T07:12:12.004Z,12.77
2022-11-25T07:13:11.784Z,12.78
2022-11-25T07:14:11.533Z,12.77
2022-11-25T07:15:11.675Z,12.74
2022-11-25T07:16:11.880Z,12.75
2022-11-25T07:17:12.426Z,12.75
2022-11-25T07:18:11.426Z,12.75
2022-11-25T07:19:11.977Z,12.72
2022-11-25T07:20:12.175Z,12.70
2022-11-25T07:21:11.636Z,12.68
2022-11-25T07:22:11.745Z,12.69
2022-11-25T07:23:11.923Z,12.72
2022-11-25T07:24:11.954Z,12.70
2022-11-25T07:25:12.358Z,12.74
2022-11-25T07:26:11.941Z,12.72
2022-11-25T07:27:11.905Z,12.73
2022-11-25T07:28:12.003Z,12.73
2022-11-25T07:29:43.924Z,12.72
2022-11-25T07:31:21.209Z,12.70
2022-11-25T07:31:27.596Z,12.68
2022-11-25T07:32:11.698Z,12.70
2022-11-25T07:33:11.995Z,12.65
2022-11-25T07:34:11.438Z,12.64
2022-11-25T07:35:11.783Z,12.65
2022-11-25T07:36:11.380Z,12.64
2022-11-25T07:37:11.100Z,12.64
2022-11-25T07:38:11.419Z,12.64
2022-11-25T07:39:11.408Z,12.60
2022-11-25T07:40:11.530Z,12.60
2022-11-25T07:41:11.567Z,12.57
2022-11-25T07:42:11.390Z,12.60
2022-11-25T07:43:11.259Z,12.57
2022-11-25T07:44:11.291Z,12.53
2022-11-25T07:45:12.454Z,12.55
2022-11-25T07:46:11.357Z,12.55
2022-11-25T07:47:11.426Z,12.53
2022-11-25T07:48:11.359Z,12.53
2022-11-25T07:49:11.094Z,12.54
2022-11-25T07:50:12.482Z,12.52
2022-11-25T07:51:11.204Z,12.52
2022-11-25T07:52:11.673Z,12.54
2022-11-25T07:53:11.215Z,12.53
2022-11-25T07:54:11.996Z,12.52
2022-11-25T07:55:12.310Z,12.53
2022-11-25T07:56:11.631Z,12.56
2022-11-25T07:57:11.409Z,12.56
2022-11-25T07:58:11.312Z,12.57
2022-11-25T07:59:12.223Z,12.57
2022-11-25T08:00:13.044Z,12.58
2022-11-25T08:01:11.529Z,12.61
2022-11-25T08:02:12.147Z,12.63
2022-11-25T08:03:11.652Z,12.66
2022-11-25T08:04:16.461Z,12.70
2022-11-25T08:05:12.385Z,12.71
2022-11-25T08:06:11.604Z,12.71
2022-11-25T08:07:11.549Z,12.71
2022-11-25T08:08:11.702Z,12.72
2022-11-25T08:09:11.731Z,12.73
2022-11-25T08:10:12.057Z,12.76
2022-11-25T08:11:11.971Z,12.76
2022-11-25T08:12:12.061Z,12.80
2022-11-25T08:13:11.621Z,12.82
2022-11-25T08:14:11.698Z,12.85
2022-11-25T08:15:11.932Z,12.87
2022-11-25T08:16:11.916Z,12.93
2022-11-25T08:17:12.255Z,12.98
2022-11-25T08:18:11.459Z,13.03
2022-11-25T08:19:11.909Z,13.07
2022-11-25T08:20:12.058Z,13.09
2022-11-25T08:21:11.978Z,13.17
2022-11-25T08:22:11.980Z,13.22
2022-11-25T08:23:11.968Z,13.25
2022-11-25T08:24:11.398Z,13.29
2022-11-25T08:25:11.464Z,13.30
2022-11-25T08:26:11.495Z,13.33
2022-11-25T08:27:11.493Z,13.37
2022-11-25T08:28:11.472Z,13.36
2022-11-25T08:29:11.340Z,13.34
2022-11-25T08:30:12.416Z,13.39
2022-11-25T08:31:11.622Z,13.42
2022-11-25T08:32:12.245Z,13.43
2022-11-25T08:33:11.533Z,13.44
2022-11-25T08:34:11.594Z,13.42
2022-11-25T08:35:11.942Z,13.39
2022-11-25T08:36:11.857Z,13.42
2022-11-25T08:37:11.950Z,13.40
2022-11-25T08:38:11.914Z,13.43
2022-11-25T08:39:36.083Z,13.46
2022-11-25T08:40:11.438Z,13.5
2022-11-25T08:41:11.529Z,13.53
2022-11-25T08:42:11.669Z,13.55
2022-11-25T08:43:11.769Z,13.61
2022-11-25T08:44:11.821Z,13.63
2022-11-25T08:45:12.326Z,13.66
2022-11-25T08:46:11.543Z,13.71
2022-11-25T08:47:11.673Z,13.73
2022-11-25T08:48:11.788Z,13.75
2022-11-25T08:49:11.828Z,13.77
2022-11-25T08:50:11.922Z,13.82
2022-11-25T08:52:12.198Z,13.86
2022-11-25T08:53:12.033Z,13.89
2022-11-25T08:54:11.861Z,13.92
2022-11-25T08:55:11.874Z,13.97
2022-11-25T08:56:11.831Z,14.01
2022-11-25T08:57:11.983Z,14.01
2022-11-25T08:58:11.643Z,14.01
2022-11-25T08:59:11.900Z,14.02
2022-11-25T09:00:12.769Z,14.03
2022-11-25T09:01:12.131Z,14.03
2022-11-25T09:02:11.530Z,14.02
2022-11-25T09:03:11.885Z,14.01
2022-11-25T09:04:12.095Z,14.06
2022-11-25T09:05:12.177Z,14.06
2022-11-25T09:06:11.350Z,14.07
2022-11-25T09:07:11.557Z,14.11
2022-11-25T09:08:11.510Z,14.11
2022-11-25T09:09:11.321Z,14.13
2022-11-25T09:10:11.429Z,14.17
2022-11-25T09:11:11.636Z,14.18
2022-11-25T09:12:11.832Z,14.15
2022-11-25T09:13:11.908Z,14.19
2022-11-25T09:14:11.833Z,14.22
2022-11-25T09:15:11.966Z,14.25
2022-11-25T09:16:12.197Z,14.26
2022-11-25T09:17:11.759Z,14.32
2022-11-25T09:18:12.003Z,14.35
2022-11-25T09:19:11.373Z,14.38
2022-11-25T09:20:11.907Z,14.39
2022-11-25T09:21:11.992Z,14.43
2022-11-25T09:22:11.887Z,14.44
2022-11-25T09:23:11.085Z,14.47
2022-11-25T09:24:12.003Z,14.47
2022-11-25T09:25:12.046Z,14.47
2022-11-25T09:26:11.040Z,14.44
2022-11-25T09:27:12.038Z,14.44
2022-11-25T09:28:11.340Z,14.42
2022-11-25T09:29:11.466Z,14.43
2022-11-25T09:30:11.468Z,14.47
2022-11-25T09:31:11.210Z,14.53
2022-11-25T09:32:12.043Z,14.56
2022-11-25T09:33:12.150Z,14.59
2022-11-25T09:34:11.238Z,14.56
2022-11-25T09:35:11.539Z,14.56
2022-11-25T09:36:11.341Z,14.60
2022-11-25T09:37:11.492Z,14.62
2022-11-25T09:38:11.140Z,14.59
2022-11-25T09:39:12.246Z,14.64
2022-11-25T09:40:11.573Z,14.67
2022-11-25T09:41:12.275Z,14.68
2022-11-25T09:42:11.574Z,14.72
2022-11-25T09:43:11.877Z,14.76
2022-11-25T09:44:11.989Z,14.77
2022-11-25T09:45:12.163Z,14.77
2022-11-25T09:46:12.266Z,14.74
2022-11-25T09:47:12.118Z,14.77
2022-11-25T09:48:12.079Z,14.77
2022-11-25T09:49:12.445Z,14.78
2022-11-25T09:50:11.549Z,14.78
2022-11-25T09:51:11.852Z,14.78
2022-11-25T09:52:11.995Z,14.79
2022-11-25T09:53:11.935Z,14.79
2022-11-25T09:54:11.979Z,14.77
2022-11-25T09:55:12.048Z,14.78
2022-11-25T09:56:12.290Z,14.80
2022-11-25T09:57:11.147Z,14.81
2022-11-25T09:58:12.529Z,14.83
2022-11-25T09:59:11.559Z,14.85
2022-11-25T10:00:11.846Z,14.87
2022-11-25T10:01:11.368Z,14.90
2022-11-25T10:02:11.460Z,14.96
2022-11-25T10:03:11.741Z,14.97
2022-11-25T10:04:11.854Z,15.02
2022-11-25T10:05:12.183Z,15.02
2022-11-25T10:06:11.969Z,15.06
2022-11-25T10:07:11.948Z,15.10
2022-11-25T10:08:12.148Z,15.13
2022-11-25T10:09:12.248Z,15.17
2022-11-25T10:10:12.425Z,15.22
2022-11-25T10:11:11.426Z,15.23
2022-11-25T10:12:17.256Z,15.23
2022-11-25T10:13:10.995Z,15.23
2022-11-25T10:14:12.109Z,15.25
2022-11-25T10:15:12.165Z,15.27
2022-11-25T10:16:17.115Z,15.28
2022-11-25T10:17:12.171Z,15.28
2022-11-25T10:18:12.095Z,15.27
2022-11-25T10:19:11.982Z,15.28
2022-11-25T10:20:12.226Z,15.33
2022-11-25T10:21:11.479Z,15.36
2022-11-25T10:22:11.587Z,15.36
2022-11-25T10:23:11.598Z,15.39
2022-11-25T10:24:11.933Z,15.36
2022-11-25T10:25:12.069Z,15.32
2022-11-25T10:26:26.078Z,15.30
2022-11-25T10:27:12.378Z,15.34
2022-11-25T10:28:11.922Z,15.36
2022-11-25T10:29:12.308Z,15.39
2022-11-25T10:30:11.707Z,15.39
2022-11-25T10:31:12.428Z,15.43
2022-11-25T10:32:11.843Z,15.43
2022-11-25T10:33:11.830Z,15.43
2022-11-25T10:34:11.891Z,15.44
2022-11-25T10:35:11.740Z,15.45
2022-11-25T10:36:11.580Z,15.45
2022-11-25T10:37:11.537Z,15.47
2022-11-25T10:38:25.469Z,15.43
2022-11-25T10:39:11.733Z,15.39
2022-11-25T10:40:12.246Z,15.39
2022-11-25T10:41:11.101Z,15.41
2022-11-25T10:42:12.651Z,15.43
2022-11-25T10:43:12.532Z,15.44
2022-11-25T10:44:11.773Z,15.48
2022-11-25T10:45:11.920Z,15.50
2022-11-25T10:46:11.941Z,15.51
2022-11-25T10:47:13.944Z,15.53
2022-11-25T10:48:11.904Z,15.49
2022-11-25T10:49:11.793Z,15.45
2022-11-25T10:50:12.069Z,15.39
2022-11-25T10:51:11.538Z,15.37
2022-11-25T10:52:11.321Z,15.36
2022-11-25T10:53:12.277Z,15.36
2022-11-25T10:54:11.364Z,15.33
2022-11-25T10:55:12.189Z,15.31
2022-11-25T10:56:12.186Z,15.30
2022-11-25T10:57:12.049Z,15.27
2022-11-25T10:58:11.927Z,15.26
2022-11-25T10:59:12.503Z,15.25
2022-11-25T11:00:17.008Z,15.26
2022-11-25T11:01:11.669Z,15.31
2022-11-25T11:02:11.737Z,15.34
2022-11-25T11:03:11.846Z,15.37
2022-11-25T11:04:11.669Z,15.39
2022-11-25T11:05:11.811Z,15.46
2022-11-25T11:06:11.772Z,15.47
2022-11-25T11:07:11.145Z,15.50
2022-11-25T11:08:11.846Z,15.53
2022-11-25T11:09:11.848Z,15.60
2022-11-25T11:10:12.085Z,15.66
2022-11-25T11:11:12.187Z,15.68
2022-11-25T11:12:12.493Z,15.71
2022-11-25T11:13:11.675Z,15.75
2022-11-25T11:14:11.622Z,15.78
2022-11-25T11:15:11.883Z,15.77
2022-11-25T11:16:12.080Z,15.78
2022-11-25T11:17:12.161Z,15.78
2022-11-25T11:18:12.297Z,15.73
2022-11-25T11:19:11.183Z,15.72
2022-11-25T11:20:11.273Z,15.72
2022-11-25T11:21:12.066Z,15.75
2022-11-25T11:22:12.108Z,15.77
2022-11-25T11:23:11.761Z,15.76
2022-11-25T11:24:11.870Z,15.76
2022-11-25T11:25:11.795Z,15.76
2022-11-25T11:26:11.737Z,15.71
2022-11-25T11:27:11.822Z,15.72
2022-11-25T11:28:11.827Z,15.73
2022-11-25T11:29:14.233Z,15.77
2022-11-25T11:30:11.532Z,15.81
2022-11-25T11:31:11.452Z,15.81
2022-11-25T11:32:11.589Z,15.81
2022-11-25T11:33:11.222Z,15.82
2022-11-25T11:34:12.051Z,15.78
2022-11-25T11:35:12.238Z,15.74
2022-11-25T11:36:11.449Z,15.69
2022-11-25T11:37:11.682Z,15.71
2022-11-25T11:38:11.548Z,15.73
2022-11-25T11:39:11.381Z,15.73
2022-11-25T11:40:11.557Z,15.73
2022-11-25T11:41:11.864Z,15.72
2022-11-25T11:42:11.589Z,15.74
2022-11-25T11:43:11.434Z,15.76
2022-11-25T11:44:11.519Z,15.72
2022-11-25T11:45:11.600Z,15.72
2022-11-25T11:46:11.588Z,15.71
2022-11-25T11:47:11.599Z,15.76
2022-11-25T11:48:11.400Z,15.77
2022-11-25T11:49:11.489Z,15.75
2022-11-25T11:50:11.858Z,15.78
2022-11-25T11:51:11.545Z,15.85
2022-11-25T11:52:11.466Z,15.93
2022-11-25T11:53:12.138Z,15.97
2022-11-25T11:54:11.445Z,16.04
2022-11-25T11:55:11.282Z,16.09
2022-11-25T11:56:34.138Z,16.13
2022-11-25T11:57:11.339Z,16.18
2022-11-25T11:58:12.141Z,16.24
2022-11-25T11:59:12.150Z,16.25
2022-11-25T12:00:12.908Z,16.26
2022-11-25T12:01:11.164Z,16.29
2022-11-25T12:02:11.502Z,16.30
2022-11-25T12:03:11.827Z,16.31
2022-11-25T12:04:11.759Z,16.36
2022-11-25T12:05:11.705Z,16.40
2022-11-25T12:06:11.607Z,16.44
2022-11-25T12:07:11.371Z,16.46
2022-11-25T12:08:11.255Z,16.44
2022-11-25T12:09:12.256Z,16.45
2022-11-25T12:10:11.315Z,16.46
2022-11-25T12:11:11.178Z,16.47
2022-11-25T12:12:11.181Z,16.45
2022-11-25T12:13:12.099Z,16.44
2022-11-25T12:14:11.601Z,16.41
2022-11-25T12:15:11.622Z,16.41
2022-11-25T12:16:11.721Z,16.43
2022-11-25T12:17:12.069Z,16.42
2022-11-25T12:18:12.029Z,16.45
2022-11-25T12:19:12.438Z,16.44
2022-11-25T12:20:11.421Z,16.44
2022-11-25T12:21:11.558Z,16.43
2022-11-25T12:22:11.467Z,16.40
2022-11-25T12:23:11.688Z,16.42
2022-11-25T12:24:11.831Z,16.38
2022-11-25T12:25:12.009Z,16.36
2022-11-25T12:26:12.076Z,16.29
2022-11-25T12:27:12.324Z,16.26
2022-11-25T12:28:11.471Z,16.26
2022-11-25T12:29:11.336Z,16.28
2022-11-25T12:30:11.906Z,16.29
2022-11-25T12:31:16.850Z,16.31
2022-11-25T12:32:12.021Z,16.27
2022-11-25T12:33:16.815Z,16.28
2022-11-25T12:34:11.575Z,16.25
2022-11-25T12:35:11.348Z,16.23
2022-11-25T12:36:11.489Z,16.21
2022-11-25T12:37:16.781Z,16.17
2022-11-25T12:38:11.752Z,16.13
2022-11-25T12:39:17.111Z,16.14
2022-11-25T12:40:12.463Z,16.16
2022-11-25T12:41:16.637Z,16.12
2022-11-25T12:42:11.561Z,16.12
2022-11-25T12:43:12.103Z,16.12
2022-11-25T12:44:11.951Z,16.11
2022-11-25T12:45:12.003Z,16.15
2022-11-25T12:46:11.800Z,16.13
2022-11-25T12:47:11.928Z,16.12
2022-11-25T12:48:11.581Z,16.11
2022-11-25T12:49:11.876Z,16.11
2022-11-25T12:50:12.452Z,16.06
2022-11-25T12:51:11.557Z,16.01
2022-11-25T12:52:11.268Z,15.99
2022-11-25T12:53:11.325Z,15.99
2022-11-25T12:54:11.746Z,16
2022-11-25T12:55:12.164Z,15.99
2022-11-25T12:56:10.937Z,16.01
2022-11-25T12:57:11.929Z,16.04